Tiempo atmosférico en la estación meteorológica de Teror, Las Palmas (683 m.)



Fecha
DESCASC
Temp. máxima en grados centígrados (hora)
DESCASC
Temp. mínima en grados centígrados (hora)
DESCASC
Temp. media en grados centígrados
DESCASC
Racha de viento máxima en m/sg (hora)
DESCASC
Velocidad máxima media en intervalos de 10 minutos(hora)
DESCASC
Precipitaciones diarias en mm
DESCASC
Precipitaciones de 00:00 a 06:00 en mm
DESCASC
Precipitaciones de 06:00 a 12:00 en mm
DESCASC
Precipitaciones de 12:00 a 18:00 en mm
DESCASC
Precipitaciones de 18:00 a 24:00 en mm
DESCASC
19-05-2019 15.7 (14:30) 11.8 (02:30) 13.8 6.11 (15:50) 3.33 (13:10) 1.2 0 0.6 0.2 0.4
18-05-2019 19.5 (13:20) 12.6 (06:40) 16.1 6.67 (14:30) 3.61 (13:20) 0.2 0.2 0 0 0
17-05-2019 23.3 (09:40) 13.5 (00:00) 18.4 5.28 (13:30) 2.78 (13:20) 0 0 0 0 0
16-05-2019 25.6 (08:40) 12.5 (00:00) 19.1 3.89 (11:50) 2.5 (01:10) 0 0 0 0 0
15-05-2019 23.8 (17:00) 8.4 (00:00) 16.1 6.94 (15:50) 3.61 (13:30) -- 0 -- 0 0
14-05-2019 23.6 (11:30) 10.8 (00:00) 17.2 8.89 (13:30) 5.83 (13:30) 0 0 0 0 0
13-05-2019 28.3 (09:30) 10.2 (00:00) 19.2 8.89 (17:00) 5.56 (17:00) 0 0 0 0 0
12-05-2019 27.9 (09:20) 10 (00:00) 18.9 3.89 (16:30) 2.22 (01:40) 0 0 0 0 0
11-05-2019 22.1 (17:50) 10.1 (00:00) 16.1 5.56 (13:30) 2.78 (13:30) 0 0 0 0 0
10-05-2019 19.3 (13:20) 12.6 (00:00) 15.9 6.11 (14:20) 3.61 (15:10) 0 0 0 0 0
09-05-2019 20.4 (14:30) 9.7 (00:00) 15 7.22 (14:30) 3.61 (16:10) 0 0 0 0 0
08-05-2019 22.7 (15:30) 7.4 (00:00) 15.1 6.11 (15:50) 3.33 (15:50) 0 0 0 0 0
07-05-2019 18.8 (14:50) 7.6 (00:00) 13.2 6.11 (18:20) 3.06 (15:00) 0 0 0 0 0
06-05-2019 18.5 (15:00) 10.9 (00:00) 14.7 5.56 (16:30) 2.78 (13:30) 0 0 0 0 0
05-05-2019 17.7 (12:40) 11 (00:00) 14.4 8.61 (15:30) 3.89 (14:10) 0 0 0 0 0
04-05-2019 18.4 (12:40) 11.5 (00:00) 14.9 6.94 (12:30) 3.89 (13:10) 0 0 0 0 0
03-05-2019 17.4 (12:50) 11.3 (00:00) 14.3 8.89 (13:30) 4.17 (13:10) 0.2 0.2 0 0 0
02-05-2019 16.9 (17:40) 11.1 (06:40) 14 10.83 (16:30) 4.44 (16:40) 1 0.2 0 0 0.8
01-05-2019 17 (13:50) 10.2 (00:00) 13.6 8.06 (08:50) 4.17 (14:00) 0 0 0 0 0
30-04-2019 21.7 (16:40) 8.2 (00:00) 15 5.83 (13:20) 2.78 (10:50) 0 0 0 0 0
29-04-2019 20.2 (15:20) 7.6 (00:00) 13.9 8.33 (10:50) 4.72 (13:10) 0.2 0 0.2 0 0
28-04-2019 19.4 (15:50) 9.9 (00:00) 14.6 9.17 (12:10) 5.83 (12:00) 0 0 0 0 0
27-04-2019 16.1 (14:00) 10.6 (00:00) 13.4 5.83 (13:30) 3.33 (14:10) 0 0 0 0 0
26-04-2019 16.7 (13:30) 9.5 (00:00) 13.1 6.67 (19:00) 3.61 (17:00) 1.2 0.2 1 0 0
25-04-2019 19.1 (15:30) 9.4 (00:00) 14.3 9.17 (02:10) 4.72 (01:20) 0 0 0 0 0
24-04-2019 18.5 (15:00) 10.7 (00:00) 14.6 8.33 (05:50) 4.17 (23:10) 0 0 0 0 0
23-04-2019 19.4 (12:30) 11.3 (00:00) 15.3 11.67 (02:10) 5.28 (02:10) 5.8 0 0 5.6 0.2

Gráficas

Temp. máximas Temp. mínimas Temp. medias Precipitaciones Rachas de viento máximas Velocidades máximas media en intervalos de 10 minutos

Datos horarios

Fecha y hora oficial Temperatura (ºC) Velocidad del viento (km/h) Dirección del viento Racha (km/h) Dirección de racha Precipitación (mm) Presión (hPa) Tendencia (hPa) Humedad (%)
2019-05-22 23:00:00 13.4 6 Noroeste 28 Noroeste 0 -- -- 100
2019-05-22 22:00:00 13.4 8 Noroeste 23 Noroeste 0 -- -- 100
2019-05-22 21:00:00 13.5 10 Noroeste 24 Norte 0 -- -- 100
2019-05-22 20:00:00 14.1 11 Noroeste 27 Norte 0 -- -- 100
2019-05-22 19:00:00 14.4 8 Norte 22 Noroeste 0.6 -- -- 100
2019-05-22 18:00:00 15.1 8 Noroeste 22 Noroeste 0 -- -- 96
2019-05-22 17:00:00 16.1 10 Norte 23 Noroeste 0 -- -- 85
2019-05-22 16:00:00 16.7 9 Norte 22 Norte 0 -- -- 84
2019-05-22 15:00:00 16.7 9 Noroeste 19 Noroeste 0 -- -- 85
2019-05-22 14:00:00 16.2 10 Norte 19 Norte 0 -- -- 89
2019-05-22 13:00:00 16.7 11 Norte 20 Norte 0 -- -- 89
2019-05-22 12:00:00 14.8 9 Norte 21 Norte 0 -- -- 98
2019-05-22 11:00:00 15 0 Calma 20 Norte 0 -- -- 100
2019-05-22 10:00:00 13.9 9 Norte 18 Noroeste 0.2 -- -- 100
2019-05-22 09:00:00 13.7 10 Norte 18 Norte 0 -- -- 100
2019-05-22 08:00:00 13.3 8 Norte 17 Norte 0 -- -- 100
2019-05-22 07:00:00 13.3 9 Norte 19 Norte 0.2 -- -- 100
2019-05-22 06:00:00 13.4 6 Norte 19 Noroeste 0 -- -- 100
2019-05-22 05:00:00 12.9 5 Noroeste 16 Noroeste 0 -- -- 100
2019-05-22 04:00:00 12.9 4 Noroeste 27 Noroeste 0 -- -- 100
2019-05-22 03:00:00 13.4 10 Norte 19 Norte 0.2 -- -- 100
2019-05-22 02:00:00 13.4 9 Norte 22 Norte 0 -- -- 100
2019-05-22 01:00:00 13.3 9 Norte 21 Norte 0 -- -- 100
2019-05-22 00:00:00 13.5 7 Norte 22 Noroeste 0 -- -- 97
2019-05-21 23:00:00 13.1 4 Noroeste 17 Norte 0 -- -- 98
2019-05-21 22:00:00 13.3 8 Noroeste 19 Noroeste 0 -- -- 98
2019-05-21 21:00:00 13.6 5 Noroeste 17 Norte 0 -- -- 96
2019-05-21 20:00:00 14.5 6 Norte 19 Norte 0 -- -- 87
2019-05-21 19:00:00 15.9 7 Norte 16 Norte 0 -- -- 81
2019-05-21 18:00:00 15.7 8 Norte 21 Norte 0 -- -- 79
2019-05-21 17:00:00 16.1 10 Norte 21 Noroeste 0 -- -- 78
2019-05-21 16:00:00 16.6 11 Norte 22 Norte 0 -- -- 79
2019-05-21 15:00:00 17 0 Calma 21 Noroeste 0 -- -- 80
2019-05-21 14:00:00 16.3 10 Norte 19 Noroeste 0 -- -- 79
2019-05-21 13:00:00 16.2 8 Norte 19 Nordeste 0 -- -- 84
2019-05-21 12:00:00 15.2 6 Norte 14 Noroeste 0 -- -- 96
2019-05-21 11:00:00 13.9 4 Norte 15 Norte 0.2 -- -- 99
2019-05-21 10:00:00 13.6 5 Noroeste 10 Norte 0.2 -- -- 99
2019-05-21 09:00:00 12.9 6 Norte 13 Norte 0.2 -- -- 100
2019-05-21 08:00:00 12.5 3 Oeste 9 Norte 0 -- -- 100
2019-05-21 07:00:00 12.4 5 Norte 17 Norte 0.2 -- -- 99
2019-05-21 06:00:00 12.6 2 Oeste 15 Oeste 0 -- -- 97
2019-05-21 05:00:00 12.6 7 Noroeste 17 Noroeste 0 -- -- 98
2019-05-21 04:00:00 12.8 4 Noroeste 15 Noroeste 0 -- -- 96
2019-05-21 03:00:00 12.6 6 Oeste 18 Noroeste 0 -- -- 96
2019-05-21 02:00:00 12.9 5 Noroeste 14 Noroeste 0 -- -- 98
2019-05-21 01:00:00 12.7 5 Noroeste 16 Noroeste 0 -- -- 97
2019-05-21 00:00:00 12.3 7 Noroeste 18 Oeste 0 -- -- 97
2019-05-20 23:00:00 12.7 7 Noroeste 21 Noroeste 0 -- -- 99
2019-05-20 22:00:00 13.7 8 Norte 20 Noroeste 0 -- -- 97
2019-05-20 21:00:00 13.7 5 Noroeste 15 Noroeste 0 -- -- 93
2019-05-20 20:00:00 14.2 8 Noroeste 13 Norte 0 -- -- 87
2019-05-20 19:00:00 14.8 7 Norte 21 Norte 0 -- -- 84
2019-05-20 18:00:00 17.2 15 Norte 27 Norte 0 -- -- 73
2019-05-20 17:00:00 17.1 10 Norte 21 Nordeste 0 -- -- 75
2019-05-20 16:00:00 16.3 12 Norte 21 Norte 0 -- -- 84
2019-05-20 15:00:00 15.4 8 Norte 19 Norte 0 -- -- 94
2019-05-20 14:00:00 14.9 13 Norte 27 Norte 0 -- -- 96
2019-05-20 13:00:00 15.6 8 Noroeste 24 Noroeste 0 -- -- 93
2019-05-20 12:00:00 16.1 12 Noroeste 24 Noroeste 0 -- -- 84
2019-05-20 11:00:00 14.8 10 Norte 21 Norte 0 -- -- 94
2019-05-20 10:00:00 14.2 6 Noroeste 20 Nordeste 0 -- -- 94
2019-05-20 09:00:00 13.7 9 Norte 18 Noroeste 0.4 -- -- 99
2019-05-20 08:00:00 13 7 Oeste 17 Sudoeste 0 -- -- 97
2019-05-20 07:00:00 12.5 7 Oeste 16 Oeste 0 -- -- 100
2019-05-20 06:00:00 12 5 Oeste 21 Norte 0 -- -- 100
2019-05-20 05:00:00 12.2 3 Norte 14 Noroeste 0 -- -- 100
2019-05-20 04:00:00 12.5 8 Norte 21 Norte 0 -- -- 100
2019-05-20 03:00:00 12.8 7 Noroeste 18 Noroeste 0.4 -- -- 100
2019-05-20 02:00:00 12.3 5 Noroeste 13 Norte 0.2 -- -- 100
2019-05-20 01:00:00 12.6 7 Norte 20 Norte 0 -- -- 100
2019-05-20 00:00:00 12.8 10 Noroeste 20 Norte 0.4 -- -- 100
2019-05-19 23:00:00 12.7 9 Noroeste 21 Noroeste 0 -- -- 100
2019-05-19 22:00:00 12.7 6 Norte 18 Noroeste 0 -- -- 100
2019-05-19 21:00:00 12.7 7 Noroeste 19 Noroeste 0 -- -- 99
2019-05-19 20:00:00 13.1 7 Norte 22 Noroeste 0 -- -- 98
2019-05-19 19:00:00 13.8 9 Noroeste 20 Oeste 0 -- -- 97
2019-05-19 18:00:00 14.5 8 Norte 21 Noroeste 0 -- -- 95
2019-05-19 17:00:00 14 8 Norte 19 Norte 0.2 -- -- 98
2019-05-19 16:00:00 15.2 9 Norte 22 Norte 0 -- -- 90
2019-05-19 15:00:00 15.3 8 Norte 17 Norte 0 -- -- 91
2019-05-19 14:00:00 14.7 10 Norte 19 Norte 0 -- -- 97
2019-05-19 13:00:00 15.1 9 Norte 18 Norte 0 -- -- 98
2019-05-19 12:00:00 14.6 9 Norte 20 Norte 0.2 -- -- 100
2019-05-19 11:00:00 14 11 Norte 19 Norte 0.2 -- -- 100
2019-05-19 10:00:00 13.4 5 Norte 13 Norte 0.2 -- -- 100
2019-05-19 09:00:00 13.3 4 Norte 14 Nordeste 0 -- -- 100
2019-05-19 08:00:00 12.9 4 Norte 13 Norte 0 -- -- 100
2019-05-19 07:00:00 12.9 3 Norte 11 Norte 0 -- -- 99
2019-05-19 06:00:00 12.8 3 Oeste 12 Oeste 0 -- -- 96
2019-05-19 05:00:00 12.6 5 Noroeste 14 Noroeste 0 -- -- 97
2019-05-19 04:00:00 12.5 6 Noroeste 12 Noroeste 0 -- -- 97
2019-05-19 03:00:00 12.2 7 Oeste 13 Noroeste 0 -- -- 98
2019-05-19 02:00:00 12.5 7 Noroeste 14 Noroeste 0 -- -- 99
2019-05-19 01:00:00 12.8 8 Norte 14 Noroeste 0 -- -- 99
2019-05-19 00:00:00 12.8 5 Norte 13 Norte 0 -- -- 99
2019-05-18 23:00:00 13 5 Norte 14 Nordeste 0 -- -- 98
2019-05-18 22:00:00 13.3 5 Norte 12 Norte 0 -- -- 98
2019-05-18 21:00:00 13.5 7 Norte 15 Norte 0 -- -- 96
2019-05-18 20:00:00 14.1 9 Nordeste 14 Norte 0 -- -- 92
2019-05-18 19:00:00 15.5 7 Norte 13 Nordeste 0 -- -- 88
2019-05-18 18:00:00 17.1 6 Nordeste 18 Sudeste 0 -- -- 82
2019-05-18 17:00:00 18.4 10 Nordeste 19 Nordeste 0 -- -- 76
2019-05-18 16:00:00 18.4 10 Norte 21 Este 0 -- -- 75
2019-05-18 15:00:00 18 12 Nordeste 24 Nordeste 0 -- -- 77
2019-05-18 14:00:00 18 11 Nordeste 21 Nordeste 0 -- -- 74
2019-05-18 13:00:00 18.9 10 Este 19 Norte 0 -- -- 77
2019-05-18 12:00:00 17.8 9 Norte 18 Este 0 -- -- 80
2019-05-18 11:00:00 16.9 6 Nordeste 16 Este 0 -- -- 82
2019-05-18 10:00:00 15.9 9 Nordeste 14 Nordeste 0 -- -- 95
2019-05-18 09:00:00 14.1 4 Este 13 Este 0 -- -- 100
2019-05-18 08:00:00 12.9 5 Este 10 Norte 0 -- -- 100
2019-05-18 07:00:00 12.8 3 Este 7 Este 0 -- -- 100
2019-05-18 06:00:00 12.7 3 Sur 6 Este 0 -- -- 100
2019-05-18 05:00:00 12.9 2 Sur 8 Nordeste 0 -- -- 100
2019-05-18 04:00:00 13.5 3 Sudeste 9 Este 0.2 -- -- 100
2019-05-18 03:00:00 13.5 4 Este 12 Nordeste 0 -- -- 100
2019-05-18 02:00:00 13.7 6 Nordeste 14 Este 0 -- -- 100
2019-05-18 01:00:00 13.7 5 Sudeste 12 Este 0 -- -- 100
2019-05-18 00:00:00 14.2 7 Sudeste 15 Nordeste 0 -- -- 100
2019-05-17 23:00:00 14.4 6 Este 12 Nordeste 0 -- -- 100
2019-05-17 22:00:00 14.5 5 Este 13 Este 0 -- -- 100
2019-05-17 21:00:00 14.7 4 Este 13 Este 0 -- -- 99
2019-05-17 20:00:00 15.6 6 Este 10 Nordeste 0 -- -- 97
2019-05-17 19:00:00 16.9 5 Nordeste 11 Este 0 -- -- 92
2019-05-17 18:00:00 18.1 5 Nordeste 13 Nordeste 0 -- -- 87
2019-05-17 17:00:00 19.5 7 Nordeste 16 Nordeste 0 -- -- 80
2019-05-17 16:00:00 20.4 5 Norte 18 Nordeste 0 -- -- 80
2019-05-17 15:00:00 21.5 8 Nordeste 15 Norte 0 -- -- 76
2019-05-17 14:00:00 20.9 6 Este 19 Este 0 -- -- 76
2019-05-17 13:00:00 21 8 Nordeste 18 Nordeste 0 -- -- 76
2019-05-17 12:00:00 22.2 6 Nordeste 14 Nordeste 0 -- -- 72
2019-05-17 11:00:00 21.7 6 Nordeste 15 Este 0 -- -- 74
2019-05-17 10:00:00 21.8 5 Este 17 Sur 0 -- -- 71
2019-05-17 09:00:00 19.3 3 Nordeste 10 Nordeste 0 -- -- 73
2019-05-17 08:00:00 20 6 Sur 15 Sur 0 -- -- 38
2019-05-17 07:00:00 17.5 5 Sudoeste 17 Sudeste 0 -- -- 42
2019-05-17 06:00:00 18 8 Sur 18 Sur 0 -- -- 43
2019-05-17 05:00:00 15.5 3 Sudeste 16 Sur 0 -- -- 72
2019-05-17 04:00:00 16.1 6 Sur 12 Sur 0 -- -- 81
2019-05-17 03:00:00 15.7 5 Sur 12 Sur 0 -- -- 78
2019-05-17 02:00:00 16.2 8 Sur 14 Sur 0 -- -- 73
2019-05-17 01:00:00 14.9 4 Sur 7 Sur 0 -- -- 78
2019-05-17 00:00:00 13.5 5 Oeste 10 Sudoeste 0 -- -- 82
2019-05-16 23:00:00 13.9 4 Oeste 11 Norte 0 -- -- 87
2019-05-16 22:00:00 13.9 2 Norte 7 Nordeste 0 -- -- 88
2019-05-16 21:00:00 14.8 0 Calma 6 Norte 0 -- -- 86
2019-05-16 20:00:00 17.7 3 Oeste 9 Sudoeste 0 -- -- 84
2019-05-16 19:00:00 23.1 3 Sur 10 Este 0 -- -- 72
2019-05-16 18:00:00 24.7 3 Este 11 Nordeste 0 -- -- 65
2019-05-16 17:00:00 24.2 0 Calma 13 Norte 0 -- -- 65
2019-05-16 16:00:00 24.1 0 Calma 12 Este 0 -- -- 65
2019-05-16 15:00:00 24.6 5 Nordeste 13 Nordeste 0 -- -- 64
2019-05-16 14:00:00 24.6 7 Este 13 Este 0 -- -- 64
2019-05-16 13:00:00 23.2 6 Nordeste 14 Este 0 -- -- 68
2019-05-16 12:00:00 23.5 6 Nordeste 14 Norte 0 -- -- 67
2019-05-16 11:00:00 21.7 6 Nordeste 10 Nordeste 0 -- -- 73
2019-05-16 10:00:00 19.9 5 Nordeste 9 Nordeste 0 -- -- 74
2019-05-16 09:00:00 22 3 Nordeste 9 Sudoeste 0 -- -- 68
2019-05-16 08:00:00 19.7 6 Sudoeste 9 Sur 0 -- -- 37
2019-05-16 07:00:00 13.4 0 Calma 8 Norte 0 -- -- 61
2019-05-16 06:00:00 14.4 2 Sudoeste 8 Norte 0 -- -- 44
2019-05-16 05:00:00 14.8 3 Sur 8 Sudoeste 0 -- -- 50
2019-05-16 04:00:00 15.6 3 Sudoeste 9 Oeste 0 -- -- 43
2019-05-16 03:00:00 15.4 6 Oeste 9 Oeste 0 -- -- 51
2019-05-16 02:00:00 16.8 3 Oeste 11 Oeste 0 -- -- 47
2019-05-16 01:00:00 15.6 9 Oeste 11 Oeste 0 -- -- 55
2019-05-16 00:00:00 12.5 2 Oeste 9 Oeste 0 -- -- 80
2019-05-15 23:00:00 13.1 0 Calma 6 Oeste 0 -- -- 96
2019-05-15 22:00:00 12.9 3 Oeste 11 Norte 0 -- -- 97
2019-05-15 21:00:00 13.5 0 Calma 6 Sudeste 0 -- -- 95
2019-05-15 20:00:00 16.6 3 Sur 9 Sudeste 0 -- -- 87
2019-05-15 19:00:00 21 5 Sur 13 Sudeste 0 -- -- 73
2019-05-15 18:00:00 22.4 5 Sudoeste 19 Noroeste 0 -- -- 69
2019-05-15 17:00:00 23.8 5 Sur 22 Norte 0 -- -- 65
2019-05-15 16:00:00 21.8 13 Norte 25 Noroeste 0 -- -- 70
2019-05-15 15:00:00 22.8 10 Norte 23 Noroeste 0 -- -- 66
2019-05-15 14:00:00 22 9 Norte 21 Norte 0 -- -- 69
2019-05-15 13:00:00 22.1 11 Nordeste 22 Norte 0 -- -- 71
2019-05-15 12:00:00 21.2 7 Nordeste -- -- -- -- -- 74
2019-05-15 11:00:00 19.5 7 Nordeste 15 Norte 0 -- -- 75
2019-05-15 10:00:00 17 10 Norte 18 Norte 0 -- -- 88
2019-05-15 09:00:00 13.2 9 Noroeste 18 Noroeste 0 -- -- 100
2019-05-15 08:00:00 10 3 Oeste 15 Noroeste 0 -- -- 100
2019-05-15 07:00:00 9.1 4 Oeste 9 Noroeste 0 -- -- 97
2019-05-15 06:00:00 8.7 2 Noroeste 6 Noroeste 0 -- -- 94
2019-05-15 05:00:00 8.6 0 Calma 6 Sudeste 0 -- -- 89
2019-05-15 04:00:00 8.8 2 Este 8 Sudoeste 0 -- -- 81
2019-05-15 03:00:00 9.8 0 Calma 6 Oeste 0 -- -- 74
2019-05-15 02:00:00 10.9 3 Sur 8 Oeste 0 -- -- 71
2019-05-15 01:00:00 11.6 3 Oeste 9 Oeste 0 -- -- 70
2019-05-15 00:00:00 11 5 Noroeste 9 Oeste 0 -- -- 76
2019-05-14 23:00:00 11.2 3 Noroeste 9 Noroeste 0 -- -- 90
2019-05-14 22:00:00 12 4 Sur 12 Oeste 0 -- -- 90
2019-05-14 21:00:00 13.2 4 Oeste 19 Noroeste 0 -- -- 88
2019-05-14 20:00:00 15 9 Oeste 25 Noroeste 0 -- -- 88
2019-05-14 19:00:00 18.6 12 Noroeste 24 Noroeste 0 -- -- 75
2019-05-14 18:00:00 20 10 Noroeste 26 Noroeste 0 -- -- 69
2019-05-14 17:00:00 20.9 14 Noroeste 31 Norte 0 -- -- 66
2019-05-14 16:00:00 21 9 Noroeste 30 Noroeste 0 -- -- 67
2019-05-14 15:00:00 20.9 2 Noroeste 32 Noroeste 0 -- -- 70
2019-05-14 14:00:00 20.7 20 Noroeste 32 Noroeste 0 -- -- 72
2019-05-14 13:00:00 21.6 17 Noroeste 27 Noroeste 0 -- -- 72
2019-05-14 12:00:00 22.8 10 Noroeste 23 Norte 0 -- -- 66
2019-05-14 11:00:00 22.5 6 Sudeste 13 Sudeste 0 -- -- 66
2019-05-14 10:00:00 20.9 5 Este 10 Sudeste 0 -- -- 68
2019-05-14 09:00:00 19.9 4 Sudeste 6 Este 0 -- -- 63
2019-05-14 08:00:00 16.8 0 Calma 5 Este 0 -- -- 57
2019-05-14 07:00:00 12.9 2 Oeste 7 Oeste 0 -- -- 53
2019-05-14 06:00:00 13 3 Oeste 9 Oeste 0 -- -- 51
2019-05-14 05:00:00 13.3 7 Oeste 11 Oeste 0 -- -- 49
2019-05-14 04:00:00 13.4 5 Oeste 11 Noroeste 0 -- -- 55
2019-05-14 03:00:00 13.5 8 Oeste 11 Oeste 0 -- -- 59
2019-05-14 02:00:00 14.1 7 Oeste 11 Noroeste 0 -- -- 66
2019-05-14 01:00:00 14.7 7 Oeste 12 Oeste 0 -- -- 61
2019-05-14 00:00:00 14.9 6 Oeste 13 Noroeste 0 -- -- 66
2019-05-13 23:00:00 14.8 7 Oeste 17 Noroeste 0 -- -- 60
2019-05-13 22:00:00 16.2 8 Oeste 18 Noroeste 0 -- -- 54
2019-05-13 21:00:00 17.8 10 Noroeste 23 Oeste 0 -- -- 49
2019-05-13 20:00:00 17.9 6 Sur 21 Oeste 0 -- -- 53
2019-05-13 19:00:00 21.4 4 Sur 19 Oeste 0 -- -- 65
2019-05-13 18:00:00 21.5 7 Oeste 32 Noroeste 0 -- -- 69
2019-05-13 17:00:00 20.2 20 Oeste 32 Oeste 0 -- -- 76
2019-05-13 16:00:00 23.3 0 Calma 30 Noroeste 0 -- -- 65
2019-05-13 15:00:00 22.5 16 Noroeste 32 Noroeste 0 -- -- 68
2019-05-13 14:00:00 25.3 10 Nordeste 18 Este 0 -- -- 57
2019-05-13 13:00:00 24.3 9 Nordeste 15 Este 0 -- -- 70
2019-05-13 12:00:00 24.7 6 Nordeste 12 Nordeste 0 -- -- 64
2019-05-13 11:00:00 26.5 5 Nordeste 11 Este 0 -- -- 56
2019-05-13 10:00:00 26.8 4 Sudeste 7 Este 0 -- -- 29
2019-05-13 09:00:00 27.2 3 Este 5 Sur 0 -- -- 22
2019-05-13 08:00:00 18.7 0 Calma 9 Sudoeste 0 -- -- 37
2019-05-13 07:00:00 13.8 4 Sudoeste 10 Sudoeste 0 -- -- 38
2019-05-13 06:00:00 12.7 0 Calma 6 Oeste 0 -- -- 37
2019-05-13 05:00:00 13.5 3 Sudoeste 6 Oeste 0 -- -- 36
2019-05-13 04:00:00 13.6 6 Oeste 12 Oeste 0 -- -- 40
2019-05-13 03:00:00 14 5 Oeste 8 Oeste 0 -- -- 37
2019-05-13 02:00:00 13.6 0 Calma 8 Oeste 0 -- -- 34
2019-05-13 01:00:00 12.6 0 Calma 4 Oeste 0 -- -- 44
2019-05-13 00:00:00 10.2 2 Sudoeste 6 Oeste 0 -- -- 81
2019-05-12 23:00:00 10.7 3 Noroeste 5 Sudeste 0 -- -- 82
2019-05-12 22:00:00 13.2 0 Calma 8 Noroeste 0 -- -- 55
2019-05-12 21:00:00 15.5 2 Sudoeste 6 Oeste 0 -- -- 41
2019-05-12 20:00:00 15.7 0 Calma 6 Nordeste 0 -- -- 70
2019-05-12 19:00:00 23.8 0 Calma 8 Este 0 -- -- 66
2019-05-12 18:00:00 23.4 4 Este 10 Nordeste 0 -- -- 67
2019-05-12 17:00:00 23.2 2 Nordeste 14 Nordeste 0 -- -- 70
2019-05-12 16:00:00 23 6 Este 12 Nordeste 0 -- -- 71
2019-05-12 15:00:00 23.9 3 Nordeste 10 Nordeste 0 -- -- 66
2019-05-12 14:00:00 22.9 5 Nordeste 11 Nordeste 0 -- -- 71
2019-05-12 13:00:00 23.8 3 Este 10 Este 0 -- -- 67
2019-05-12 12:00:00 24.5 5 Este 10 Este 0 -- -- 66
2019-05-12 11:00:00 24.1 3 Sudeste 6 Este 0 -- -- 67
2019-05-12 10:00:00 24.3 2 Este 8 Nordeste 0 -- -- 63
2019-05-12 09:00:00 24.6 0 Calma 4 Sudeste 0 -- -- 48
2019-05-12 08:00:00 17.1 2 Oeste 5 Sudoeste 0 -- -- 48
2019-05-12 07:00:00 15.7 4 Sur 7 Sur 0 -- -- 42
2019-05-12 06:00:00 15.7 4 Sudoeste 6 Sudoeste 0 -- -- 40
2019-05-12 05:00:00 14.9 4 Sudoeste 6 Sudoeste 0 -- -- 38
2019-05-12 04:00:00 16 3 Oeste 6 Oeste 0 -- -- 37
2019-05-12 03:00:00 15.9 2 Oeste 9 Oeste 0 -- -- 46
2019-05-12 02:00:00 15.4 2 Sudoeste 10 Oeste 0 -- -- 49
2019-05-12 01:00:00 14 4 Sudoeste 10 Oeste 0 -- -- 44
2019-05-12 00:00:00 12.6 0 Calma 6 Noroeste 0 -- -- 63
2019-05-11 23:00:00 10.2 3 Noroeste 7 Oeste 0 -- -- 91
2019-05-11 22:00:00 11.4 0 Calma 4 Noroeste 0 -- -- 96
2019-05-11 21:00:00 12.1 2 Noroeste 6 Oeste 0 -- -- 95
2019-05-11 20:00:00 16.2 0 Calma 9 Nordeste 0 -- -- 89
2019-05-11 19:00:00 20.5 4 Nordeste 10 Nordeste 0 -- -- 77
2019-05-11 18:00:00 21.9 5 Nordeste 14 Nordeste 0 -- -- 73
2019-05-11 17:00:00 21 8 Nordeste 14 Este 0 -- -- 77
2019-05-11 16:00:00 20.6 6 Nordeste 18 Este 0 -- -- 76
2019-05-11 15:00:00 21.1 4 Nordeste 19 Nordeste 0 -- -- 74
2019-05-11 14:00:00 20.9 8 Nordeste 20 Nordeste 0 -- -- 74
2019-05-11 13:00:00 20 9 Nordeste 17 Nordeste 0 -- -- 78
2019-05-11 12:00:00 18.8 8 Nordeste 17 Este 0 -- -- 80
2019-05-11 11:00:00 16.3 6 Nordeste 14 Nordeste 0 -- -- 90
2019-05-11 10:00:00 15.1 5 Nordeste 10 Nordeste 0 -- -- 91
2019-05-11 09:00:00 13.3 2 Oeste 10 Nordeste 0 -- -- 98
2019-05-11 08:00:00 12.6 3 Oeste 7 Noroeste 0 -- -- 100
2019-05-11 07:00:00 12.8 3 Sudeste 9 Sudoeste 0 -- -- 99
2019-05-11 06:00:00 12.9 4 Este 7 Sudeste 0 -- -- 98
2019-05-11 05:00:00 12.9 2 Sudoeste 11 Sudeste 0 -- -- 97
2019-05-11 04:00:00 12.8 4 Sur 10 Este 0 -- -- 97
2019-05-11 03:00:00 12.9 5 Sudeste 13 Nordeste 0 -- -- 97
2019-05-11 02:00:00 13.3 5 Este 12 Este 0 -- -- 96
2019-05-11 01:00:00 13.3 4 Nordeste 13 Este 0 -- -- 96
2019-05-11 00:00:00 13.3 5 Este 11 Nordeste 0 -- -- 98
2019-05-10 23:00:00 13.6 5 Nordeste 14 Este 0 -- -- 98
2019-05-10 22:00:00 13.8 5 Nordeste 14 Norte 0 -- -- 98
2019-05-10 21:00:00 14.2 5 Nordeste 10 Nordeste 0 -- -- 94
2019-05-10 20:00:00 14.5 6 Nordeste 14 Norte 0 -- -- 94
2019-05-10 19:00:00 15.3 8 Norte 16 Nordeste 0 -- -- 89
2019-05-10 18:00:00 17.1 11 Norte 19 Este 0 -- -- 82
2019-05-10 17:00:00 18.5 9 Nordeste 20 Nordeste 0 -- -- 75
2019-05-10 16:00:00 18.6 4 Norte 21 Norte 0 -- -- 73
2019-05-10 15:00:00 18.5 11 Nordeste 22 Nordeste 0 -- -- 75
2019-05-10 14:00:00 19 9 Norte 19 Nordeste 0 -- -- 75
2019-05-10 13:00:00 18.2 9 Nordeste 19 Este 0 -- -- 75
2019-05-10 12:00:00 17.1 9 Nordeste 21 Nordeste 0 -- -- 83
2019-05-10 11:00:00 15.9 9 Nordeste 17 Este 0 -- -- 83
2019-05-10 10:00:00 14.7 5 Norte 17 Nordeste 0 -- -- 90
2019-05-10 09:00:00 13.6 3 Este 13 Norte 0 -- -- 92
2019-05-10 08:00:00 12.8 3 Nordeste 12 Norte 0 -- -- 96
2019-05-10 07:00:00 12.6 0 Calma 12 Norte 0 -- -- 95
2019-05-10 06:00:00 13.1 7 Norte 12 Norte 0 -- -- 95
2019-05-10 05:00:00 13 6 Norte 12 Norte 0 -- -- 96
2019-05-10 04:00:00 13.1 3 Noroeste 12 Noroeste 0 -- -- 95
2019-05-10 03:00:00 13 3 Noroeste 12 Norte 0 -- -- 94
2019-05-10 02:00:00 12.7 5 Norte 11 Norte 0 -- -- 96
2019-05-10 01:00:00 13.1 4 Norte 9 Norte 0 -- -- 97
2019-05-10 00:00:00 12.6 3 Oeste 12 Noroeste 0 -- -- 97
2019-05-09 23:00:00 12.8 6 Oeste 13 Norte 0 -- -- 96
2019-05-09 22:00:00 13.1 8 Noroeste 20 Noroeste 0 -- -- 97
2019-05-09 21:00:00 13.4 7 Noroeste 15 Noroeste 0 -- -- 95
2019-05-09 20:00:00 14.6 8 Norte 19 Nordeste 0 -- -- 88
2019-05-09 19:00:00 17.2 8 Norte 19 Norte 0 -- -- 83
2019-05-09 18:00:00 19.1 9 Norte 21 Norte 0 -- -- 75
2019-05-09 17:00:00 19.8 10 Norte 23 Norte 0 -- -- 73
2019-05-09 16:00:00 20.4 10 Norte 22 Norte 0 -- -- 71
2019-05-09 15:00:00 20.3 0 Calma 26 Norte 0 -- -- 69
2019-05-09 14:00:00 19.7 10 Nordeste 21 Norte 0 -- -- 67
2019-05-09 13:00:00 19.6 5 Nordeste 23 Norte 0 -- -- 71
2019-05-09 12:00:00 19.9 9 Nordeste 20 Nordeste 0 -- -- 72
2019-05-09 11:00:00 17.8 7 Nordeste 15 Nordeste 0 -- -- 81
2019-05-09 10:00:00 17.3 5 Nordeste 9 Nordeste 0 -- -- 83
2019-05-09 09:00:00 15.9 4 Norte 10 Nordeste 0 -- -- 87
2019-05-09 08:00:00 12.4 4 Sur 10 Sudoeste 0 -- -- 98
2019-05-09 07:00:00 12.2 4 Noroeste 11 Sur 0 -- -- 98
2019-05-09 06:00:00 12.4 3 Sudoeste 10 Sur 0 -- -- 99
2019-05-09 05:00:00 11.8 0 Calma 7 Norte 0 -- -- 99
2019-05-09 04:00:00 13 0 Calma 8 Norte 0 -- -- 99
2019-05-09 03:00:00 12.7 0 Calma 8 Oeste 0 -- -- 99
2019-05-09 02:00:00 10.8 4 Sudoeste 12 Sudoeste 0 -- -- 94
2019-05-09 01:00:00 11.4 5 Oeste 10 Oeste 0 -- -- 95
2019-05-09 00:00:00 9.9 4 Sudoeste 8 Oeste 0 -- -- 94
2019-05-08 23:00:00 10.1 3 Oeste 9 Noroeste 0 -- -- 93
2019-05-08 22:00:00 11 6 Oeste 11 Oeste 0 -- -- 91
2019-05-08 21:00:00 12 4 Oeste 8 Oeste 0 -- -- 88
2019-05-08 20:00:00 13.2 4 Noroeste 6 Oeste 0 -- -- 84
2019-05-08 19:00:00 19.7 3 Nordeste 14 Nordeste 0 -- -- 63
2019-05-08 18:00:00 20.5 9 Nordeste 17 Nordeste 0 -- -- 61
2019-05-08 17:00:00 20.9 9 Nordeste 21 Nordeste 0 -- -- 58
2019-05-08 16:00:00 22.2 11 Este 22 Este 0 -- -- 59
2019-05-08 15:00:00 21.5 12 Nordeste 19 Este 0 -- -- 66
2019-05-08 14:00:00 20.1 9 Nordeste 19 Nordeste 0 -- -- 74
2019-05-08 13:00:00 20.1 10 Nordeste 17 Este 0 -- -- 71
2019-05-08 12:00:00 20.5 9 Este 18 Este 0 -- -- 62
2019-05-08 11:00:00 20.4 9 Nordeste 17 Este 0 -- -- 65
2019-05-08 10:00:00 19.7 7 Este 17 Sudeste 0 -- -- 61
2019-05-08 09:00:00 16.9 6 Oeste 14 Sudoeste 0 -- -- 81
2019-05-08 08:00:00 10.5 3 Sudeste 10 Sur 0 -- -- 100
2019-05-08 07:00:00 10.8 7 Sudoeste 14 Oeste 0 -- -- 100
2019-05-08 06:00:00 7.4 5 Noroeste 11 Noroeste 0 -- -- 99
2019-05-08 05:00:00 8.6 4 Sudoeste 10 Sur 0 -- -- 100
2019-05-08 04:00:00 8.6 4 Noroeste 10 Noroeste 0 -- -- 100
2019-05-08 03:00:00 9.8 6 Noroeste 17 Noroeste 0 -- -- 100
2019-05-08 02:00:00 9.8 5 Noroeste 11 Noroeste 0 -- -- 100
2019-05-08 01:00:00 11.2 5 Noroeste 11 Noroeste 0 -- -- 100
2019-05-08 00:00:00 10.8 4 Oeste 9 Oeste 0 -- -- 100
2019-05-07 23:00:00 10.8 7 Oeste 14 Norte 0 -- -- 100
2019-05-07 22:00:00 7.6 4 Sudoeste 7 Oeste 0 -- -- 97
2019-05-07 21:00:00 9.2 0 Calma 5 Oeste 0 -- -- 95
2019-05-07 20:00:00 12.8 3 Sur 14 Norte 0 -- -- 91
2019-05-07 19:00:00 18.3 5 Norte 22 Norte 0 -- -- 74
2019-05-07 18:00:00 17.7 11 Norte 21 Norte 0 -- -- 76
2019-05-07 17:00:00 18.6 9 Norte 18 Nordeste 0 -- -- 71
2019-05-07 16:00:00 18.3 10 Nordeste 19 Nordeste 0 -- -- 72
2019-05-07 15:00:00 18.6 11 Norte 19 Norte 0 -- -- 71
2019-05-07 14:00:00 18.2 7 Nordeste 21 Nordeste 0 -- -- 71
2019-05-07 13:00:00 18.2 8 Nordeste 17 Nordeste 0 -- -- 75
2019-05-07 12:00:00 17.1 8 Norte 17 Nordeste 0 -- -- 76
2019-05-07 11:00:00 15.1 5 Norte 14 Norte 0 -- -- 81
2019-05-07 10:00:00 13.5 4 Norte 13 Nordeste 0 -- -- 88
2019-05-07 09:00:00 12.2 3 Nordeste 10 Norte 0 -- -- 95
2019-05-07 08:00:00 10.7 0 Calma 8 Nordeste 0 -- -- 98
2019-05-07 07:00:00 10.9 2 Norte 11 Norte 0 -- -- 95
2019-05-07 06:00:00 11.3 2 Oeste 15 Noroeste 0 -- -- 95
2019-05-07 05:00:00 11.7 4 Norte 10 Norte 0 -- -- 95
2019-05-07 04:00:00 11.7 4 Noroeste 12 Nordeste 0 -- -- 95
2019-05-07 03:00:00 11.8 0 Calma 9 Este 0 -- -- 95
2019-05-07 02:00:00 11.8 5 Nordeste 11 Norte 0 -- -- 95
2019-05-07 01:00:00 12.1 4 Norte 17 Noroeste 0 -- -- 96
2019-05-07 00:00:00 12.1 4 Noroeste 11 Noroeste 0 -- -- 95
2019-05-06 23:00:00 12.1 6 Noroeste 13 Norte 0 -- -- 94
2019-05-06 22:00:00 12.3 6 Noroeste 19 Norte 0 -- -- 95
2019-05-06 21:00:00 12.5 8 Noroeste 15 Noroeste 0 -- -- 94
2019-05-06 20:00:00 13.2 8 Norte 16 Norte 0 -- -- 91
2019-05-06 19:00:00 14.6 9 Norte 17 Noroeste 0 -- -- 86
2019-05-06 18:00:00 16.7 8 Norte 16 Norte 0 -- -- 74
2019-05-06 17:00:00 17.5 9 Norte 20 Nordeste 0 -- -- 74
2019-05-06 16:00:00 18.2 9 Nordeste 18 Nordeste 0 -- -- 71
2019-05-06 15:00:00 18.5 0 Calma 19 Nordeste 0 -- -- 69
2019-05-06 14:00:00 17.9 10 Nordeste 19 Nordeste 0 -- -- 70
2019-05-06 13:00:00 16.8 8 Norte 17 Norte 0 -- -- 74
2019-05-06 12:00:00 16.1 8 Nordeste 18 Este 0 -- -- 75
2019-05-06 11:00:00 13.6 6 Norte 17 Norte 0 -- -- 84
2019-05-06 10:00:00 12.7 5 Norte 14 Norte 0 -- -- 85
2019-05-06 09:00:00 11.8 2 Nordeste 12 Norte 0 -- -- 90
2019-05-06 08:00:00 11.2 5 Nordeste 14 Norte 0 -- -- 92
2019-05-06 07:00:00 11.1 0 Calma 13 Norte 0 -- -- 92
2019-05-06 06:00:00 11 3 Noroeste 12 Nordeste 0 -- -- 92
2019-05-06 05:00:00 11.2 4 Nordeste 12 Norte 0 -- -- 92
2019-05-06 04:00:00 11.1 0 Calma 9 Nordeste 0 -- -- 92
2019-05-06 03:00:00 11.1 3 Nordeste 12 Norte 0 -- -- 91
2019-05-06 02:00:00 11.3 3 Noroeste 13 Norte 0 -- -- 91
2019-05-06 01:00:00 11.5 3 Noroeste 12 Noroeste 0 -- -- 90
2019-05-06 00:00:00 11.7 5 Norte 14 Norte 0 -- -- 90
2019-05-05 23:00:00 11.6 8 Noroeste 14 Norte 0 -- -- 89
2019-05-05 22:00:00 11.8 5 Norte 15 Nordeste 0 -- -- 89
2019-05-05 21:00:00 11.9 7 Noroeste 15 Norte 0 -- -- 88
2019-05-05 20:00:00 12.6 7 Noroeste 19 Norte 0 -- -- 85
2019-05-05 19:00:00 14.2 11 Norte 23 Norte 0 -- -- 80
2019-05-05 18:00:00 16.3 10 Norte 26 Norte 0 -- -- 71
2019-05-05 17:00:00 16.6 14 Norte 26 Norte 0 -- -- 70
2019-05-05 16:00:00 16.8 11 Norte 31 Noroeste 0 -- -- 70
2019-05-05 15:00:00 17 14 Norte 26 Norte 0 -- -- 70
2019-05-05 14:00:00 17.2 11 Norte 25 Norte 0 -- -- 68
2019-05-05 13:00:00 17.6 11 Norte 18 Nordeste 0 -- -- 68
2019-05-05 12:00:00 16.9 8 Nordeste 20 Norte 0 -- -- 70
2019-05-05 11:00:00 16.8 9 Este 21 Nordeste 0 -- -- 71
2019-05-05 10:00:00 13.1 3 Noroeste 14 Norte 0 -- -- 82
2019-05-05 09:00:00 12 3 Norte 10 Nordeste 0 -- -- 85
2019-05-05 08:00:00 11.2 4 Norte 11 Norte 0 -- -- 88
2019-05-05 07:00:00 11 4 Noroeste 12 Noroeste 0 -- -- 88
2019-05-05 06:00:00 11.2 0 Calma 12 Norte 0 -- -- 89
2019-05-05 05:00:00 11.4 3 Noroeste 13 Noroeste 0 -- -- 88
2019-05-05 04:00:00 11.7 6 Norte 14 Oeste 0 -- -- 88
2019-05-05 03:00:00 11.7 6 Oeste 16 Noroeste 0 -- -- 86
2019-05-05 02:00:00 11.7 8 Noroeste 17 Noroeste 0 -- -- 86
2019-05-05 01:00:00 11.7 7 Noroeste 20 Norte 0 -- -- 86
2019-05-05 00:00:00 11.9 7 Noroeste 19 Noroeste 0 -- -- 87
2019-05-04 23:00:00 11.9 9 Noroeste 19 Noroeste 0 -- -- 86
2019-05-04 22:00:00 12.1 6 Noroeste 18 Noroeste 0 -- -- 87
2019-05-04 21:00:00 12.2 5 Noroeste 23 Norte 0 -- -- 88
2019-05-04 20:00:00 12.7 8 Norte 21 Noroeste 0 -- -- 86
2019-05-04 19:00:00 13.1 11 Norte 23 Noroeste 0 -- -- 86
2019-05-04 18:00:00 14.4 10 Noroeste 22 Norte 0 -- -- 81
2019-05-04 17:00:00 15.5 11 Norte 24 Norte 0 -- -- 76
2019-05-04 16:00:00 15.9 11 Norte 20 Norte 0 -- -- 78
2019-05-04 15:00:00 16.2 12 Norte 23 Norte 0 -- -- 79
2019-05-04 14:00:00 17.9 8 Norte 24 Norte 0 -- -- 71
2019-05-04 13:00:00 17.2 8 Norte 25 Norte 0 -- -- 70
2019-05-04 12:00:00 16.1 10 Norte 22 Norte 0 -- -- 72
2019-05-04 11:00:00 14.1 8 Norte 19 Noroeste 0 -- -- 78
2019-05-04 10:00:00 13.4 7 Norte 19 Norte 0 -- -- 81
2019-05-04 09:00:00 12.6 6 Noroeste 19 Norte 0 -- -- 83
2019-05-04 08:00:00 11.9 10 Noroeste 22 Noroeste 0 -- -- 93
2019-05-04 07:00:00 11.5 7 Noroeste 19 Oeste 0 -- -- 95
2019-05-04 06:00:00 12.2 6 Norte 21 Norte 0 -- -- 91
2019-05-04 05:00:00 11.9 6 Noroeste 16 Noroeste 0 -- -- 88
2019-05-04 04:00:00 12 5 Noroeste 17 Noroeste 0 -- -- 88
2019-05-04 03:00:00 12 6 Noroeste 14 Noroeste 0 -- -- 88
2019-05-04 02:00:00 11.9 5 Noroeste 14 Noroeste 0 -- -- 87
2019-05-04 01:00:00 12 6 Noroeste 12 Oeste 0 -- -- 85
2019-05-04 00:00:00 11.8 5 Oeste 13 Noroeste 0 -- -- 85
2019-05-03 23:00:00 11.8 8 Oeste 19 Noroeste 0 -- -- 88
2019-05-03 22:00:00 11.9 10 Noroeste 25 Noroeste 0 -- -- 85
2019-05-03 21:00:00 11.3 9 Noroeste 21 Noroeste 0 -- -- 86
2019-05-03 20:00:00 12.5 6 Noroeste 21 Norte 0 -- -- 84
2019-05-03 19:00:00 13.8 9 Norte 24 Norte 0 -- -- 80
2019-05-03 18:00:00 14.6 13 Norte 29 Norte 0 -- -- 75
2019-05-03 17:00:00 14.7 14 Norte 28 Norte 0 -- -- 78
2019-05-03 16:00:00 14.9 14 Norte 24 Norte 0 -- -- 81
2019-05-03 15:00:00 15.3 10 Norte 27 Nordeste 0 -- -- 80
2019-05-03 14:00:00 16.3 14 Norte 32 Norte 0 -- -- 71
2019-05-03 13:00:00 17.3 12 Norte 24 Norte 0 -- -- 69
2019-05-03 12:00:00 15.3 13 Norte 25 Norte 0 -- -- 75
2019-05-03 11:00:00 14.2 9 Norte 21 Norte 0 -- -- 79
2019-05-03 10:00:00 12.4 8 Norte 18 Norte 0 -- -- 94
2019-05-03 09:00:00 11.8 5 Noroeste 19 Noroeste 0 -- -- 99
2019-05-03 08:00:00 11.6 8 Norte 24 Noroeste 0 -- -- 100
2019-05-03 07:00:00 11.8 9 Norte 26 Norte 0 -- -- 100
2019-05-03 06:00:00 11.8 7 Norte 19 Noroeste 0 -- -- 98
2019-05-03 05:00:00 11.7 6 Noroeste 21 Norte 0 -- -- 100
2019-05-03 04:00:00 11.8 8 Noroeste 21 Oeste 0 -- -- 99
2019-05-03 03:00:00 11.9 6 Noroeste 23 Norte 0 -- -- 100
2019-05-03 02:00:00 12.1 8 Noroeste 17 Oeste 0.2 -- -- 99
2019-05-03 01:00:00 11.7 11 Noroeste 22 Oeste 0 -- -- 99
2019-05-03 00:00:00 12.2 9 Noroeste 26 Norte 0 -- -- 100
2019-05-02 23:00:00 12.3 9 Norte 18 Norte 0.6 -- -- 99
2019-05-02 22:00:00 12.1 8 Oeste 21 Noroeste 0.2 -- -- 95
2019-05-02 21:00:00 12.6 10 Norte 20 Norte 0 -- -- 97
2019-05-02 20:00:00 12.7 8 Noroeste 22 Norte 0 -- -- 94
2019-05-02 19:00:00 13.1 7 Noroeste 24 Noroeste 0 -- -- 95
2019-05-02 18:00:00 16.1 10 Noroeste 29 Norte 0 -- -- 71
2019-05-02 17:00:00 15.4 15 Norte 39 Norte 0 -- -- 78
2019-05-02 16:00:00 16.8 13 Norte 31 Norte 0 -- -- 70
2019-05-02 15:00:00 14.9 13 Norte 27 Norte 0 -- -- 81
2019-05-02 14:00:00 15.7 15 Norte 27 Norte 0 -- -- 76
2019-05-02 13:00:00 15.3 10 Norte 24 Noroeste 0 -- -- 78
2019-05-02 12:00:00 16.6 12 Norte 23 Noroeste 0 -- -- 70
2019-05-02 11:00:00 14 13 Noroeste 27 Oeste 0 -- -- 85
2019-05-02 10:00:00 13.3 11 Noroeste 23 Noroeste 0 -- -- 88
2019-05-02 09:00:00 12.1 9 Noroeste 25 Noroeste 0 -- -- 95
2019-05-02 08:00:00 11.9 11 Noroeste 30 Oeste 0 -- -- 95
2019-05-02 07:00:00 11.4 14 Noroeste 29 Noroeste 0 -- -- 99
2019-05-02 06:00:00 11.7 10 Noroeste 26 Norte 0.2 -- -- 99
2019-05-02 05:00:00 11.9 10 Noroeste 24 Noroeste 0 -- -- 99
2019-05-02 04:00:00 12 10 Noroeste 27 Noroeste 0 -- -- 96
2019-05-02 03:00:00 11.7 10 Noroeste 26 Noroeste 0 -- -- 94
2019-05-02 02:00:00 11.7 10 Noroeste 22 Noroeste 0 -- -- 97
2019-05-02 01:00:00 11.7 12 Noroeste 23 Noroeste 0 -- -- 94
2019-05-02 00:00:00 12.2 9 Noroeste 27 Noroeste 0 -- -- 89
2019-05-01 23:00:00 12 11 Noroeste 26 Noroeste 0 -- -- 91
2019-05-01 22:00:00 12.1 11 Noroeste 29 Noroeste 0 -- -- 95
2019-05-01 21:00:00 12.4 9 Noroeste 26 Noroeste 0 -- -- 91
2019-05-01 20:00:00 12.6 13 Noroeste 26 Noroeste 0 -- -- 90
2019-05-01 19:00:00 13.4 12 Noroeste 27 Noroeste 0 -- -- 87
2019-05-01 18:00:00 13.8 12 Norte 28 Noroeste 0 -- -- 84
2019-05-01 17:00:00 14.5 12 Noroeste 27 Norte 0 -- -- 85
2019-05-01 16:00:00 15.2 13 Norte 26 Norte 0 -- -- 82
2019-05-01 15:00:00 16.5 10 Noroeste 25 Norte 0 -- -- 78
2019-05-01 14:00:00 16.6 15 Norte 28 Norte 0 -- -- 78
2019-05-01 13:00:00 16 13 Norte 26 Noroeste 0 -- -- 79
2019-05-01 12:00:00 15 12 Norte 28 Oeste 0 -- -- 85
2019-05-01 11:00:00 15.2 11 Norte 26 Norte 0 -- -- 85
2019-05-01 10:00:00 13.2 9 Noroeste 23 Noroeste 0 -- -- 94
2019-05-01 09:00:00 12.7 8 Noroeste 29 Noroeste 0 -- -- 94
2019-05-01 08:00:00 12.2 7 Noroeste 28 Sudoeste 0 -- -- 95
2019-05-01 07:00:00 12.3 11 Oeste 23 Noroeste 0 -- -- 94
2019-05-01 06:00:00 12.1 10 Noroeste 21 Noroeste 0 -- -- 88
2019-05-01 05:00:00 12.1 5 Sudoeste 12 Sudoeste 0 -- -- 72
2019-05-01 04:00:00 12.6 3 Este 12 Noroeste 0 -- -- 66
2019-05-01 03:00:00 11.4 4 Oeste 19 Noroeste 0 -- -- 78
2019-05-01 02:00:00 11.9 9 Noroeste 18 Noroeste 0 -- -- 85
2019-05-01 01:00:00 11.7 8 Oeste 12 Noroeste 0 -- -- 74
2019-05-01 00:00:00 11.4 7 Oeste 11 Oeste 0 -- -- 76
2019-04-30 23:00:00 12.5 6 Oeste 12 Oeste 0 -- -- 75
2019-04-30 22:00:00 13.2 5 Oeste 14 Noroeste 0 -- -- 74
2019-04-30 21:00:00 11.8 6 Oeste 12 Oeste 0 -- -- 75
2019-04-30 20:00:00 14.5 6 Oeste 13 Oeste 0 -- -- 62
2019-04-30 19:00:00 20.7 3 Noroeste 18 Oeste 0 -- -- 50
2019-04-30 18:00:00 20.4 7 Noroeste 17 Noroeste 0 -- -- 71
2019-04-30 17:00:00 21 8 Norte 18 Noroeste 0 -- -- 68
2019-04-30 16:00:00 21.5 7 Norte 18 Nordeste 0 -- -- 56
2019-04-30 15:00:00 20.8 8 Norte 17 Norte 0 -- -- 55
2019-04-30 14:00:00 20.6 10 Norte 21 Norte 0 -- -- 65
2019-04-30 13:00:00 20.5 8 Norte 18 Norte 0 -- -- 67
2019-04-30 12:00:00 19.9 8 Nordeste 17 Norte 0 -- -- 68
2019-04-30 11:00:00 19.5 10 Norte 17 Norte 0 -- -- 68
2019-04-30 10:00:00 19.7 4 Nordeste 12 Sudeste 0 -- -- 68
2019-04-30 09:00:00 17.2 4 Norte 12 Noroeste 0 -- -- 77
2019-04-30 08:00:00 11.1 5 Oeste 13 Noroeste 0 -- -- 90
2019-04-30 07:00:00 9.3 0 Calma 9 Oeste 0 -- -- 89
2019-04-30 06:00:00 8.9 2 Noroeste 8 Sudoeste 0 -- -- 91
2019-04-30 05:00:00 8.5 4 Oeste 7 Oeste 0 -- -- 100
2019-04-30 04:00:00 8.7 4 Sur 9 Sudoeste 0 -- -- 100
2019-04-30 03:00:00 9 4 Noroeste 9 Noroeste 0 -- -- 100
2019-04-30 02:00:00 9 4 Sudoeste 8 Oeste 0 -- -- 100
2019-04-30 01:00:00 9.5 4 Sudoeste 9 Noroeste 0 -- -- 100
2019-04-30 00:00:00 9.8 4 Oeste 8 Oeste 0 -- -- 99
2019-04-29 23:00:00 10.1 0 Calma 7 Oeste 0 -- -- 98
2019-04-29 22:00:00 10.2 4 Sudoeste 11 Oeste 0 -- -- 94
2019-04-29 21:00:00 10.8 3 Noroeste 6 Sudoeste 0 -- -- 94
2019-04-29 20:00:00 14.7 2 Sudoeste 10 Noroeste 0 -- -- 89
2019-04-29 19:00:00 18.6 5 Noroeste 18 Noroeste 0 -- -- 78
2019-04-29 18:00:00 18.4 11 Norte 22 Noroeste 0 -- -- 77
2019-04-29 17:00:00 18.8 11 Norte 26 Norte 0 -- -- 76
2019-04-29 16:00:00 19.5 12 Norte 25 Norte 0 -- -- 76
2019-04-29 15:00:00 20.1 15 Norte 28 Norte 0 -- -- 73
2019-04-29 14:00:00 19.2 14 Norte 27 Noroeste 0 -- -- 80
2019-04-29 13:00:00 18.8 17 Noroeste 29 Noroeste 0 -- -- 79
2019-04-29 12:00:00 17.9 14 Noroeste 30 Noroeste 0 -- -- 82
2019-04-29 11:00:00 17.6 14 Noroeste 30 Oeste 0 -- -- 80
2019-04-29 10:00:00 16.9 11 Noroeste 22 Oeste 0 -- -- 82
2019-04-29 09:00:00 16.6 4 Este 12 Este 0 -- -- 76
2019-04-29 08:00:00 10.9 2 Sudeste 8 Sudoeste 0.2 -- -- 90
2019-04-29 07:00:00 7.6 3 Oeste 10 Oeste 0 -- -- 98
2019-04-29 06:00:00 8.8 3 Sur 7 Noroeste 0 -- -- 100
2019-04-29 05:00:00 8.9 4 Sur 8 Noroeste 0 -- -- 99
2019-04-29 04:00:00 8.5 3 Oeste 9 Oeste 0 -- -- 100
2019-04-29 03:00:00 9 4 Noroeste 12 Sudeste 0 -- -- 100
2019-04-29 02:00:00 9.5 3 Oeste 8 Sur 0 -- -- 100
2019-04-29 01:00:00 11 5 Oeste 18 Oeste 0 -- -- 100
2019-04-29 00:00:00 9.9 3 Noroeste 5 Noroeste 0 -- -- 100
2019-04-28 23:00:00 10.3 0 Calma 4 Norte 0 -- -- 99
2019-04-28 22:00:00 10.4 2 Norte 7 Sur 0 -- -- 100
2019-04-28 21:00:00 11.5 3 Sudoeste 8 Oeste 0 -- -- 97
2019-04-28 20:00:00 13.8 3 Nordeste 24 Noroeste 0 -- -- 90
2019-04-28 19:00:00 16.4 14 Noroeste 26 Noroeste 0 -- -- 83
2019-04-28 18:00:00 17.8 15 Noroeste 28 Noroeste 0 -- -- 78
2019-04-28 17:00:00 18.6 14 Norte 28 Noroeste 0 -- -- 77
2019-04-28 16:00:00 18.9 15 Norte 27 Noroeste 0 -- -- 77
2019-04-28 15:00:00 18.7 17 Noroeste 28 Noroeste 0 -- -- 77
2019-04-28 14:00:00 18.4 17 Noroeste 29 Noroeste 0 -- -- 79
2019-04-28 13:00:00 17.7 20 Noroeste 33 Noroeste 0 -- -- 81
2019-04-28 12:00:00 17.5 21 Noroeste 31 Noroeste 0 -- -- 82
2019-04-28 11:00:00 16.8 19 Noroeste 30 Noroeste 0 -- -- 82
2019-04-28 10:00:00 16.7 16 Noroeste 27 Noroeste 0 -- -- 81
2019-04-28 09:00:00 17.5 5 Este 8 Este 0 -- -- 74
2019-04-28 08:00:00 11 3 Norte 19 Oeste 0 -- -- 100
2019-04-28 07:00:00 11.6 9 Noroeste 22 Noroeste 0 -- -- 99
2019-04-28 06:00:00 12 6 Noroeste 15 Oeste 0 -- -- 100
2019-04-28 05:00:00 12 6 Oeste 15 Norte 0 -- -- 100
2019-04-28 04:00:00 12.2 5 Noroeste 14 Oeste 0 -- -- 100
2019-04-28 03:00:00 12.2 6 Noroeste 11 Noroeste 0 -- -- 100
2019-04-28 02:00:00 12.2 5 Noroeste 13 Norte 0 -- -- 100
2019-04-28 01:00:00 12.4 4 Noroeste 14 Norte 0 -- -- 100
2019-04-28 00:00:00 12.2 5 Noroeste 13 Noroeste 0 -- -- 100
2019-04-27 23:00:00 12.5 7 Norte 14 Norte 0 -- -- 100
2019-04-27 22:00:00 12.5 7 Noroeste 13 Noroeste 0 -- -- 98
2019-04-27 21:00:00 12.3 4 Noroeste 15 Norte 0 -- -- 97
2019-04-27 20:00:00 12.5 8 Noroeste 17 Noroeste 0 -- -- 97
2019-04-27 19:00:00 12.9 8 Norte 18 Noroeste 0 -- -- 95
2019-04-27 18:00:00 13.2 10 Norte 19 Noroeste 0 -- -- 93
2019-04-27 17:00:00 14.1 11 Norte 19 Oeste 0 -- -- 89
2019-04-27 16:00:00 15.3 8 Norte 19 Norte 0 -- -- 86
2019-04-27 15:00:00 14.5 10 Norte 20 Norte 0 -- -- 88
2019-04-27 14:00:00 16.1 9 Norte 21 Norte 0 -- -- 78
2019-04-27 13:00:00 15.6 9 Norte 18 Norte 0 -- -- 78
2019-04-27 12:00:00 14.9 9 Norte 18 Norte 0 -- -- 84
2019-04-27 11:00:00 13.6 5 Norte 16 Norte 0 -- -- 86
2019-04-27 10:00:00 13 6 Norte 15 Norte 0 -- -- 90
2019-04-27 09:00:00 11.5 6 Norte 12 Norte 0 -- -- 99
2019-04-27 08:00:00 11 3 Noroeste 10 Noroeste 0 -- -- 97
2019-04-27 07:00:00 10.7 4 Noroeste 13 Noroeste 0 -- -- 97
2019-04-27 06:00:00 11 5 Noroeste 17 Noroeste 0 -- -- 99
2019-04-27 05:00:00 11 5 Norte 11 Norte 0 -- -- 98
2019-04-27 04:00:00 11 6 Noroeste 12 Noroeste 0 -- -- 97
2019-04-27 03:00:00 10.9 5 Noroeste 15 Noroeste 0 -- -- 95
2019-04-27 02:00:00 10.9 7 Norte 14 Norte 0 -- -- 97
2019-04-27 01:00:00 11.4 5 Noroeste 18 Norte 0 -- -- 93
2019-04-27 00:00:00 11.4 6 Norte 15 Nordeste 0 -- -- 94
2019-04-26 23:00:00 11.2 6 Noroeste 17 Norte 0 -- -- 94
2019-04-26 22:00:00 12 7 Norte 18 Norte 0 -- -- 98
2019-04-26 21:00:00 11.9 10 Norte 23 Norte 0 -- -- 98
2019-04-26 20:00:00 12.2 12 Norte 22 Norte 0 -- -- 98
2019-04-26 19:00:00 12.9 11 Norte 24 Norte 0 -- -- 95
2019-04-26 18:00:00 13.4 8 Norte 20 Norte 0 -- -- 92
2019-04-26 17:00:00 13.4 13 Norte 19 Norte 0 -- -- 93
2019-04-26 16:00:00 15.1 9 Norte 17 Norte 0 -- -- 88
2019-04-26 15:00:00 15 6 Norte 17 Nordeste 0 -- -- 83
2019-04-26 14:00:00 16.1 7 Norte 20 Norte 0 -- -- 77
2019-04-26 13:00:00 15 5 Nordeste 17 Norte 0 -- -- 78
2019-04-26 12:00:00 13.8 8 Norte 18 Nordeste 0 -- -- 86
2019-04-26 11:00:00 13.3 9 Norte 17 Noroeste 0 -- -- 89
2019-04-26 10:00:00 11.7 5 Norte 19 Norte 0.4 -- -- 100
2019-04-26 09:00:00 11.9 6 Norte 15 Norte 0 -- -- 100
2019-04-26 08:00:00 11.1 8 Norte 21 Norte 0.2 -- -- 100
2019-04-26 07:00:00 11.8 9 Norte 20 Norte 0.4 -- -- 100
2019-04-26 06:00:00 12.3 11 Norte 23 Nordeste 0.2 -- -- 100
2019-04-26 05:00:00 12.5 3 Nordeste 13 Norte 0 -- -- 99
2019-04-26 04:00:00 12.4 3 Norte 15 Sudoeste 0 -- -- 95
2019-04-26 03:00:00 12 5 Sudoeste 8 Oeste 0 -- -- 98
2019-04-26 02:00:00 12.1 2 Sudoeste 9 Nordeste 0 -- -- 99
2019-04-26 01:00:00 11.9 4 Norte 10 Noroeste 0 -- -- 100
2019-04-26 00:00:00 9.7 4 Oeste 9 Oeste 0 -- -- 96
2019-04-25 23:00:00 9.6 7 Oeste 15 Noroeste 0 -- -- 93
2019-04-25 22:00:00 10.3 6 Oeste 10 Oeste 0 -- -- 92
2019-04-25 21:00:00 11.6 6 Oeste 11 Oeste 0 -- -- 89
2019-04-25 20:00:00 13.9 6 Noroeste 14 Norte 0 -- -- 82
2019-04-25 19:00:00 16.2 7 Norte 15 Noroeste 0 -- -- 72
2019-04-25 18:00:00 16.7 9 Nordeste 21 Norte 0 -- -- 72
2019-04-25 17:00:00 16.7 12 Norte 25 Norte 0 -- -- 70
2019-04-25 16:00:00 17.7 13 Norte 27 Norte 0 -- -- 70
2019-04-25 15:00:00 18.1 13 Norte 23 Norte 0 -- -- 72
2019-04-25 14:00:00 17.6 13 Norte 22 Norte 0 -- -- 69
2019-04-25 13:00:00 16.5 10 Norte 23 Norte 0 -- -- 78
2019-04-25 12:00:00 15.7 10 Noroeste 24 Norte 0 -- -- 80
2019-04-25 11:00:00 16.9 12 Norte 21 Noroeste 0 -- -- 74
2019-04-25 10:00:00 14.1 10 Noroeste 21 Noroeste 0 -- -- 84
2019-04-25 09:00:00 13.5 9 Noroeste 20 Noroeste 0 -- -- 84
2019-04-25 08:00:00 11.4 8 Oeste 19 Noroeste 0 -- -- 90
2019-04-25 07:00:00 11.2 10 Noroeste 24 Noroeste 0 -- -- 91
2019-04-25 06:00:00 11.5 6 Oeste 22 Noroeste 0 -- -- 91
2019-04-25 05:00:00 11.1 7 Oeste 28 Noroeste 0 -- -- 93
2019-04-25 04:00:00 11.2 9 Oeste 28 Noroeste 0 -- -- 93
2019-04-25 03:00:00 10.9 11 Noroeste 33 Oeste 0 -- -- 94
2019-04-25 02:00:00 11.3 14 Oeste 31 Noroeste 0 -- -- 93
2019-04-25 01:00:00 11.5 14 Noroeste 22 Noroeste 0 -- -- 81
2019-04-25 00:00:00 11 11 Oeste 25 Oeste 0 -- -- 83
2019-04-24 23:00:00 11.4 12 Oeste 23 Oeste 0 -- -- 96
2019-04-24 22:00:00 11.7 10 Noroeste 26 Noroeste 0 -- -- 98
2019-04-24 21:00:00 11.9 9 Noroeste 19 Noroeste 0 -- -- 97
2019-04-24 20:00:00 12.4 9 Noroeste 24 Noroeste 0 -- -- 94
2019-04-24 19:00:00 13.4 10 Noroeste 28 Noroeste 0 -- -- 90
2019-04-24 18:00:00 15 11 Noroeste 25 Noroeste 0 -- -- 83
2019-04-24 17:00:00 16.2 14 Norte 27 Noroeste 0 -- -- 82
2019-04-24 16:00:00 17.9 12 Norte 25 Norte 0 -- -- 80
2019-04-24 15:00:00 18.5 13 Norte 24 Norte 0 -- -- 77
2019-04-24 14:00:00 18.2 13 Norte 22 Norte 0 -- -- 78
2019-04-24 13:00:00 17.4 11 Norte 23 Noroeste 0 -- -- 73
2019-04-24 12:00:00 17.2 11 Norte 22 Norte 0 -- -- 76
2019-04-24 11:00:00 16.7 9 Norte 21 Oeste 0 -- -- 75
2019-04-24 10:00:00 13.2 10 Noroeste 22 Noroeste 0 -- -- 92
2019-04-24 09:00:00 12.1 6 Oeste 17 Sudoeste 0 -- -- 90
2019-04-24 08:00:00 11.6 6 Oeste 24 Oeste 0 -- -- 95
2019-04-24 07:00:00 11 8 Noroeste 25 Noroeste 0 -- -- 97
2019-04-24 06:00:00 10.8 12 Noroeste 30 Noroeste 0 -- -- 99
2019-04-24 05:00:00 10.9 10 Noroeste 25 Noroeste 0 -- -- 100
2019-04-24 04:00:00 11.4 8 Norte 25 Noroeste 0 -- -- 99
2019-04-24 03:00:00 11.2 8 Noroeste 19 Sudoeste 0 -- -- 96
2019-04-24 02:00:00 10.9 6 Noroeste 21 Oeste 0 -- -- 94
2019-04-24 01:00:00 11 5 Sur 22 Norte 0 -- -- 98
2019-04-24 00:00:00 11.3 10 Norte 24 Noroeste 0.2 -- -- 100
2019-04-23 23:00:00 11.5 7 Noroeste 22 Norte 0 -- -- 99
2019-04-23 22:00:00 11.5 10 Noroeste 23 Norte 0 -- -- 99
2019-04-23 21:00:00 11.6 10 Norte 23 Noroeste 0 -- -- 99
2019-04-23 20:00:00 11.8 8 Noroeste 33 Norte 0 -- -- 97
2019-04-23 19:00:00 11.9 9 Noroeste 24 Norte 0 -- -- 99
2019-04-23 18:00:00 11.8 14 Noroeste 29 Noroeste 0.2 -- -- 100
2019-04-23 17:00:00 12 10 Noroeste 34 Noroeste 0.4 -- -- 100
2019-04-23 16:00:00 12.7 13 Norte 31 Norte 2.6 -- -- 100
2019-04-23 15:00:00 13.7 9 Noroeste 22 Noroeste 1.8 -- -- 99
2019-04-23 14:00:00 15.2 10 Noroeste 29 Noroeste 0.6 -- -- 95
2019-04-23 13:00:00 18 15 Norte 30 Noroeste 0 -- -- 71
2019-04-23 12:00:00 18.8 15 Noroeste 34 Noroeste 0 -- -- 68
2019-04-23 11:00:00 17.3 14 Norte 37 Noroeste 0 -- -- 72
2019-04-23 10:00:00 15.9 9 Este 26 Norte 0 -- -- 80
2019-04-23 09:00:00 12.8 7 Norte 34 Noroeste 0 -- -- 96
2019-04-23 08:00:00 12.5 9 Nordeste 28 Noroeste 0 -- -- 95
2019-04-23 07:00:00 12.4 11 Noroeste 31 Oeste 0 -- -- 96
2019-04-23 06:00:00 12.4 10 Noroeste 28 Noroeste 0 -- -- 94
2019-04-23 05:00:00 12.1 10 Norte 41 Noroeste 0 -- -- 96
2019-04-23 04:00:00 12.6 12 Norte 35 Noroeste 0 -- -- 96
2019-04-23 03:00:00 12.4 14 Noroeste 42 Noroeste 0 -- -- 95
2019-04-23 02:00:00 12.5 16 Noroeste 35 Noroeste 0 -- -- 98
2019-04-23 01:00:00 12.5 14 Noroeste 32 Noroeste 0 -- -- 97
2019-04-23 00:00:00 12.5 12 Norte 32 Noroeste 0 -- -- 98